sensor_id;sensor_type;location;lat;lon;timestamp;temperature;humidity
15083;DHT22;7640;53.116;6.878;2024-02-15T00:00:54;12.20;99.90
15083;DHT22;7640;53.116;6.878;2024-02-15T00:03:26;12.20;99.90
15083;DHT22;7640;53.116;6.878;2024-02-15T00:05:56;12.20;99.90
15083;DHT22;7640;53.116;6.878;2024-02-15T00:08:24;12.20;99.90
15083;DHT22;7640;53.116;6.878;2024-02-15T00:10:54;12.20;99.90
15083;DHT22;7640;53.116;6.878;2024-02-15T00:13:22;12.20;99.90
15083;DHT22;7640;53.116;6.878;2024-02-15T00:15:51;12.20;99.90
15083;DHT22;7640;53.116;6.878;2024-02-15T00:18:21;12.20;99.90
15083;DHT22;7640;53.116;6.878;2024-02-15T00:20:53;12.20;99.90
15083;DHT22;7640;53.116;6.878;2024-02-15T00:23:21;12.20;99.90
15083;DHT22;7640;53.116;6.878;2024-02-15T00:25:49;12.20;99.90
15083;DHT22;7640;53.116;6.878;2024-02-15T00:28:18;12.20;99.90
15083;DHT22;7640;53.116;6.878;2024-02-15T00:30:47;12.20;99.90
15083;DHT22;7640;53.116;6.878;2024-02-15T00:33:15;12.20;99.90
15083;DHT22;7640;53.116;6.878;2024-02-15T00:35:46;12.20;99.90
15083;DHT22;7640;53.116;6.878;2024-02-15T00:38:19;12.20;99.90
15083;DHT22;7640;53.116;6.878;2024-02-15T00:40:47;12.20;99.90
15083;DHT22;7640;53.116;6.878;2024-02-15T00:43:16;12.20;99.90
15083;DHT22;7640;53.116;6.878;2024-02-15T00:45:44;12.20;99.90
15083;DHT22;7640;53.116;6.878;2024-02-15T00:48:16;12.20;99.90
15083;DHT22;7640;53.116;6.878;2024-02-15T00:50:46;12.20;99.90
15083;DHT22;7640;53.116;6.878;2024-02-15T00:53:15;12.20;99.90
15083;DHT22;7640;53.116;6.878;2024-02-15T00:55:44;12.20;99.90
15083;DHT22;7640;53.116;6.878;2024-02-15T00:58:13;12.20;99.90
15083;DHT22;7640;53.116;6.878;2024-02-15T01:00:41;12.20;99.90
15083;DHT22;7640;53.116;6.878;2024-02-15T01:03:10;12.20;99.90
15083;DHT22;7640;53.116;6.878;2024-02-15T01:05:38;12.20;99.90
15083;DHT22;7640;53.116;6.878;2024-02-15T01:08:09;12.20;99.90
15083;DHT22;7640;53.116;6.878;2024-02-15T01:10:38;12.20;99.90
15083;DHT22;7640;53.116;6.878;2024-02-15T01:13:07;12.20;99.90
15083;DHT22;7640;53.116;6.878;2024-02-15T01:15:36;12.20;99.90
15083;DHT22;7640;53.116;6.878;2024-02-15T01:18:06;12.20;99.90
15083;DHT22;7640;53.116;6.878;2024-02-15T01:20:35;12.20;99.90
15083;DHT22;7640;53.116;6.878;2024-02-15T01:23:08;12.10;99.90
15083;DHT22;7640;53.116;6.878;2024-02-15T01:25:37;12.10;99.90
15083;DHT22;7640;53.116;6.878;2024-02-15T01:28:06;12.20;99.90
15083;DHT22;7640;53.116;6.878;2024-02-15T01:30:35;12.20;99.90
15083;DHT22;7640;53.116;6.878;2024-02-15T01:33:04;12.10;99.90
15083;DHT22;7640;53.116;6.878;2024-02-15T01:35:33;12.10;99.90
15083;DHT22;7640;53.116;6.878;2024-02-15T01:38:02;12.10;99.90
15083;DHT22;7640;53.116;6.878;2024-02-15T01:40:33;12.10;99.90
15083;DHT22;7640;53.116;6.878;2024-02-15T01:43:02;12.10;99.90
15083;DHT22;7640;53.116;6.878;2024-02-15T01:45:31;12.10;99.90
15083;DHT22;7640;53.116;6.878;2024-02-15T01:48:01;12.10;99.90
15083;DHT22;7640;53.116;6.878;2024-02-15T01:50:31;12.10;99.90
15083;DHT22;7640;53.116;6.878;2024-02-15T01:53:02;12.10;99.90
15083;DHT22;7640;53.116;6.878;2024-02-15T01:55:33;12.20;99.90
15083;DHT22;7640;53.116;6.878;2024-02-15T01:58:03;12.20;99.90
15083;DHT22;7640;53.116;6.878;2024-02-15T02:00:32;12.20;99.90
15083;DHT22;7640;53.116;6.878;2024-02-15T02:03:03;12.20;99.90
15083;DHT22;7640;53.116;6.878;2024-02-15T02:05:31;12.20;99.90
15083;DHT22;7640;53.116;6.878;2024-02-15T02:08:00;12.20;99.90
15083;DHT22;7640;53.116;6.878;2024-02-15T02:10:32;12.20;99.90
15083;DHT22;7640;53.116;6.878;2024-02-15T02:13:01;12.20;99.90
15083;DHT22;7640;53.116;6.878;2024-02-15T02:15:31;12.20;99.90
15083;DHT22;7640;53.116;6.878;2024-02-15T02:18:00;12.20;99.90
15083;DHT22;7640;53.116;6.878;2024-02-15T02:20:29;12.20;99.90
15083;DHT22;7640;53.116;6.878;2024-02-15T02:23:07;12.20;99.90
15083;DHT22;7640;53.116;6.878;2024-02-15T02:25:40;12.20;99.90
15083;DHT22;7640;53.116;6.878;2024-02-15T02:28:10;12.20;99.90
15083;DHT22;7640;53.116;6.878;2024-02-15T02:30:40;12.20;99.90
15083;DHT22;7640;53.116;6.878;2024-02-15T02:33:12;12.20;99.90
15083;DHT22;7640;53.116;6.878;2024-02-15T02:35:47;12.20;99.90
15083;DHT22;7640;53.116;6.878;2024-02-15T02:38:16;12.20;99.90
15083;DHT22;7640;53.116;6.878;2024-02-15T02:40:46;12.20;99.90
15083;DHT22;7640;53.116;6.878;2024-02-15T02:43:14;12.20;99.90
15083;DHT22;7640;53.116;6.878;2024-02-15T02:45:43;12.20;99.90
15083;DHT22;7640;53.116;6.878;2024-02-15T02:48:12;12.30;99.90
15083;DHT22;7640;53.116;6.878;2024-02-15T02:50:41;12.30;99.90
15083;DHT22;7640;53.116;6.878;2024-02-15T02:53:10;12.30;99.90
15083;DHT22;7640;53.116;6.878;2024-02-15T02:55:40;12.30;99.90
15083;DHT22;7640;53.116;6.878;2024-02-15T02:58:10;12.30;99.90
15083;DHT22;7640;53.116;6.878;2024-02-15T03:00:39;12.30;99.90
15083;DHT22;7640;53.116;6.878;2024-02-15T03:03:09;12.30;99.90
15083;DHT22;7640;53.116;6.878;2024-02-15T03:05:38;12.30;99.90
15083;DHT22;7640;53.116;6.878;2024-02-15T03:08:10;12.30;99.90
15083;DHT22;7640;53.116;6.878;2024-02-15T03:10:40;12.30;99.90
15083;DHT22;7640;53.116;6.878;2024-02-15T03:13:11;12.30;99.90
15083;DHT22;7640;53.116;6.878;2024-02-15T03:15:40;12.30;99.90
15083;DHT22;7640;53.116;6.878;2024-02-15T03:18:09;12.30;99.90
15083;DHT22;7640;53.116;6.878;2024-02-15T03:20:38;12.30;99.90
15083;DHT22;7640;53.116;6.878;2024-02-15T03:23:06;12.30;99.90
15083;DHT22;7640;53.116;6.878;2024-02-15T03:25:36;12.30;99.90
15083;DHT22;7640;53.116;6.878;2024-02-15T03:28:05;12.30;99.90
15083;DHT22;7640;53.116;6.878;2024-02-15T03:30:35;12.30;99.90
15083;DHT22;7640;53.116;6.878;2024-02-15T03:33:04;12.40;99.90
15083;DHT22;7640;53.116;6.878;2024-02-15T03:35:34;12.30;99.90
15083;DHT22;7640;53.116;6.878;2024-02-15T03:38:03;12.30;99.90
15083;DHT22;7640;53.116;6.878;2024-02-15T03:40:34;12.40;99.90
15083;DHT22;7640;53.116;6.878;2024-02-15T03:43:03;12.40;99.90
15083;DHT22;7640;53.116;6.878;2024-02-15T03:45:35;12.40;99.90
15083;DHT22;7640;53.116;6.878;2024-02-15T03:48:04;12.40;99.90
15083;DHT22;7640;53.116;6.878;2024-02-15T03:50:34;12.40;99.90
15083;DHT22;7640;53.116;6.878;2024-02-15T03:53:03;12.40;99.90
15083;DHT22;7640;53.116;6.878;2024-02-15T03:55:34;12.40;99.90
15083;DHT22;7640;53.116;6.878;2024-02-15T03:58:03;12.40;99.90
15083;DHT22;7640;53.116;6.878;2024-02-15T04:00:31;12.40;99.90
15083;DHT22;7640;53.116;6.878;2024-02-15T04:03:02;12.40;99.90
15083;DHT22;7640;53.116;6.878;2024-02-15T04:05:31;12.40;99.90
15083;DHT22;7640;53.116;6.878;2024-02-15T04:08:00;12.40;99.90
15083;DHT22;7640;53.116;6.878;2024-02-15T04:10:29;12.40;99.90
15083;DHT22;7640;53.116;6.878;2024-02-15T04:12:58;12.40;99.90
15083;DHT22;7640;53.116;6.878;2024-02-15T04:15:27;12.40;99.90
15083;DHT22;7640;53.116;6.878;2024-02-15T04:17:55;12.40;99.90
15083;DHT22;7640;53.116;6.878;2024-02-15T04:20:25;12.40;99.90
15083;DHT22;7640;53.116;6.878;2024-02-15T04:22:54;12.40;99.90
15083;DHT22;7640;53.116;6.878;2024-02-15T04:25:25;12.40;99.90
15083;DHT22;7640;53.116;6.878;2024-02-15T04:27:55;12.40;99.90
15083;DHT22;7640;53.116;6.878;2024-02-15T04:30:24;12.40;99.90
15083;DHT22;7640;53.116;6.878;2024-02-15T04:32:53;12.50;99.90
15083;DHT22;7640;53.116;6.878;2024-02-15T04:35:21;12.50;99.90
15083;DHT22;7640;53.116;6.878;2024-02-15T04:37:52;12.50;99.90
15083;DHT22;7640;53.116;6.878;2024-02-15T04:40:20;12.50;99.90
15083;DHT22;7640;53.116;6.878;2024-02-15T04:42:49;12.50;99.90
15083;DHT22;7640;53.116;6.878;2024-02-15T04:45:17;12.50;99.90
15083;DHT22;7640;53.116;6.878;2024-02-15T04:47:47;12.50;99.90
15083;DHT22;7640;53.116;6.878;2024-02-15T04:50:19;12.50;99.90
15083;DHT22;7640;53.116;6.878;2024-02-15T04:52:48;12.50;99.90
15083;DHT22;7640;53.116;6.878;2024-02-15T04:55:18;12.50;99.90
15083;DHT22;7640;53.116;6.878;2024-02-15T04:57:47;12.60;99.90
15083;DHT22;7640;53.116;6.878;2024-02-15T05:00:16;12.60;99.90
15083;DHT22;7640;53.116;6.878;2024-02-15T05:02:48;12.60;99.90
15083;DHT22;7640;53.116;6.878;2024-02-15T05:05:17;12.60;99.90
15083;DHT22;7640;53.116;6.878;2024-02-15T05:07:46;12.60;99.90
15083;DHT22;7640;53.116;6.878;2024-02-15T05:10:17;12.60;99.90
15083;DHT22;7640;53.116;6.878;2024-02-15T05:12:46;12.60;99.90
15083;DHT22;7640;53.116;6.878;2024-02-15T05:15:16;12.60;99.90
15083;DHT22;7640;53.116;6.878;2024-02-15T05:17:46;12.60;99.90
15083;DHT22;7640;53.116;6.878;2024-02-15T05:20:15;12.60;99.90
15083;DHT22;7640;53.116;6.878;2024-02-15T05:22:44;12.60;99.90
15083;DHT22;7640;53.116;6.878;2024-02-15T05:25:19;12.60;99.90
15083;DHT22;7640;53.116;6.878;2024-02-15T05:27:55;12.60;99.90
15083;DHT22;7640;53.116;6.878;2024-02-15T05:30:30;12.70;99.90
15083;DHT22;7640;53.116;6.878;2024-02-15T05:33:00;12.60;99.90
15083;DHT22;7640;53.116;6.878;2024-02-15T05:35:29;12.70;99.90
15083;DHT22;7640;53.116;6.878;2024-02-15T05:37:57;12.60;99.90
15083;DHT22;7640;53.116;6.878;2024-02-15T05:40:27;12.60;99.90
15083;DHT22;7640;53.116;6.878;2024-02-15T05:42:57;12.60;99.90
15083;DHT22;7640;53.116;6.878;2024-02-15T05:45:30;12.60;99.90
15083;DHT22;7640;53.116;6.878;2024-02-15T05:48:05;12.60;99.90
15083;DHT22;7640;53.116;6.878;2024-02-15T05:50:40;12.60;99.90
15083;DHT22;7640;53.116;6.878;2024-02-15T05:53:10;12.60;99.90
15083;DHT22;7640;53.116;6.878;2024-02-15T05:55:40;12.60;99.90
15083;DHT22;7640;53.116;6.878;2024-02-15T05:58:11;12.60;99.90
15083;DHT22;7640;53.116;6.878;2024-02-15T06:00:41;12.60;99.90
15083;DHT22;7640;53.116;6.878;2024-02-15T06:03:11;12.60;99.90
15083;DHT22;7640;53.116;6.878;2024-02-15T06:05:40;12.60;99.90
15083;DHT22;7640;53.116;6.878;2024-02-15T06:08:09;12.50;99.90
15083;DHT22;7640;53.116;6.878;2024-02-15T06:10:40;12.60;99.90
15083;DHT22;7640;53.116;6.878;2024-02-15T06:13:09;12.60;99.90
15083;DHT22;7640;53.116;6.878;2024-02-15T06:15:37;12.60;99.90
15083;DHT22;7640;53.116;6.878;2024-02-15T06:18:06;12.60;99.90
15083;DHT22;7640;53.116;6.878;2024-02-15T06:20:37;12.70;99.90
15083;DHT22;7640;53.116;6.878;2024-02-15T06:23:07;12.70;99.90
15083;DHT22;7640;53.116;6.878;2024-02-15T06:25:35;12.70;99.90
15083;DHT22;7640;53.116;6.878;2024-02-15T06:28:05;12.70;99.90
15083;DHT22;7640;53.116;6.878;2024-02-15T06:30:47;12.70;99.90
15083;DHT22;7640;53.116;6.878;2024-02-15T06:33:32;12.70;99.90
15083;DHT22;7640;53.116;6.878;2024-02-15T06:36:19;12.70;99.90
15083;DHT22;7640;53.116;6.878;2024-02-15T06:39:05;12.70;99.90
15083;DHT22;7640;53.116;6.878;2024-02-15T06:41:51;12.70;99.90
15083;DHT22;7640;53.116;6.878;2024-02-15T06:44:21;12.70;99.90
15083;DHT22;7640;53.116;6.878;2024-02-15T06:46:51;12.70;99.90
15083;DHT22;7640;53.116;6.878;2024-02-15T06:49:20;12.80;99.90
15083;DHT22;7640;53.116;6.878;2024-02-15T06:51:49;12.80;99.90
15083;DHT22;7640;53.116;6.878;2024-02-15T06:54:18;12.80;99.90
15083;DHT22;7640;53.116;6.878;2024-02-15T06:56:47;12.80;99.90
15083;DHT22;7640;53.116;6.878;2024-02-15T06:59:15;12.80;99.90
15083;DHT22;7640;53.116;6.878;2024-02-15T07:01:46;12.80;99.90
15083;DHT22;7640;53.116;6.878;2024-02-15T07:04:15;12.80;99.90
15083;DHT22;7640;53.116;6.878;2024-02-15T07:06:44;12.80;99.90
15083;DHT22;7640;53.116;6.878;2024-02-15T07:09:15;12.80;99.90
15083;DHT22;7640;53.116;6.878;2024-02-15T07:11:46;12.80;99.90
15083;DHT22;7640;53.116;6.878;2024-02-15T07:14:18;12.80;99.90
15083;DHT22;7640;53.116;6.878;2024-02-15T07:16:49;12.80;99.90
15083;DHT22;7640;53.116;6.878;2024-02-15T07:19:18;12.80;99.90
15083;DHT22;7640;53.116;6.878;2024-02-15T07:21:48;12.90;99.90
15083;DHT22;7640;53.116;6.878;2024-02-15T07:24:18;12.90;99.90
15083;DHT22;7640;53.116;6.878;2024-02-15T07:26:47;12.90;99.90
15083;DHT22;7640;53.116;6.878;2024-02-15T07:29:18;12.90;99.90
15083;DHT22;7640;53.116;6.878;2024-02-15T07:31:49;12.90;99.90
15083;DHT22;7640;53.116;6.878;2024-02-15T07:34:18;12.90;99.90
15083;DHT22;7640;53.116;6.878;2024-02-15T07:36:47;12.90;99.90
15083;DHT22;7640;53.116;6.878;2024-02-15T07:39:18;12.90;99.90
15083;DHT22;7640;53.116;6.878;2024-02-15T07:41:52;12.90;99.90
15083;DHT22;7640;53.116;6.878;2024-02-15T07:44:21;13.00;99.90
15083;DHT22;7640;53.116;6.878;2024-02-15T07:46:51;13.00;99.90
15083;DHT22;7640;53.116;6.878;2024-02-15T07:49:20;13.00;99.90
15083;DHT22;7640;53.116;6.878;2024-02-15T07:51:49;13.00;99.90
15083;DHT22;7640;53.116;6.878;2024-02-15T07:54:20;13.00;99.90
15083;DHT22;7640;53.116;6.878;2024-02-15T07:56:49;13.00;99.90
15083;DHT22;7640;53.116;6.878;2024-02-15T07:59:19;13.00;99.90
15083;DHT22;7640;53.116;6.878;2024-02-15T08:01:47;13.00;99.90
15083;DHT22;7640;53.116;6.878;2024-02-15T08:04:18;13.00;99.90
15083;DHT22;7640;53.116;6.878;2024-02-15T08:06:48;13.00;99.90
15083;DHT22;7640;53.116;6.878;2024-02-15T08:09:18;13.00;99.90
15083;DHT22;7640;53.116;6.878;2024-02-15T08:11:49;13.10;99.90
15083;DHT22;7640;53.116;6.878;2024-02-15T08:14:18;13.00;99.90
15083;DHT22;7640;53.116;6.878;2024-02-15T08:16:47;13.00;99.90
15083;DHT22;7640;53.116;6.878;2024-02-15T08:19:18;13.00;99.90
15083;DHT22;7640;53.116;6.878;2024-02-15T08:21:46;13.10;99.90
15083;DHT22;7640;53.116;6.878;2024-02-15T08:24:17;13.10;99.90
15083;DHT22;7640;53.116;6.878;2024-02-15T08:26:46;13.00;99.90
15083;DHT22;7640;53.116;6.878;2024-02-15T08:29:16;13.10;99.90
15083;DHT22;7640;53.116;6.878;2024-02-15T08:31:44;13.10;99.90
15083;DHT22;7640;53.116;6.878;2024-02-15T08:34:14;13.10;99.90
15083;DHT22;7640;53.116;6.878;2024-02-15T08:36:47;13.10;99.90
15083;DHT22;7640;53.116;6.878;2024-02-15T08:39:17;13.10;99.90
15083;DHT22;7640;53.116;6.878;2024-02-15T08:41:46;13.10;99.90
15083;DHT22;7640;53.116;6.878;2024-02-15T08:44:15;13.10;99.90
15083;DHT22;7640;53.116;6.878;2024-02-15T08:46:49;13.10;99.90
15083;DHT22;7640;53.116;6.878;2024-02-15T08:49:19;13.10;99.90
15083;DHT22;7640;53.116;6.878;2024-02-15T08:51:49;13.10;99.90
15083;DHT22;7640;53.116;6.878;2024-02-15T08:54:18;13.10;99.90
15083;DHT22;7640;53.116;6.878;2024-02-15T08:56:48;13.10;99.90
15083;DHT22;7640;53.116;6.878;2024-02-15T08:59:19;13.10;99.90
15083;DHT22;7640;53.116;6.878;2024-02-15T09:01:47;13.10;99.90
15083;DHT22;7640;53.116;6.878;2024-02-15T09:04:18;13.10;99.90
15083;DHT22;7640;53.116;6.878;2024-02-15T09:06:46;13.10;99.90
15083;DHT22;7640;53.116;6.878;2024-02-15T09:09:16;13.00;99.90
15083;DHT22;7640;53.116;6.878;2024-02-15T09:11:45;13.10;99.90
15083;DHT22;7640;53.116;6.878;2024-02-15T09:14:14;13.00;99.90
15083;DHT22;7640;53.116;6.878;2024-02-15T09:16:44;13.00;99.90
15083;DHT22;7640;53.116;6.878;2024-02-15T09:19:13;13.10;99.90
15083;DHT22;7640;53.116;6.878;2024-02-15T09:21:42;13.10;99.90
15083;DHT22;7640;53.116;6.878;2024-02-15T09:24:11;13.10;99.90
15083;DHT22;7640;53.116;6.878;2024-02-15T09:26:41;13.10;99.90
15083;DHT22;7640;53.116;6.878;2024-02-15T09:29:11;13.10;99.90
15083;DHT22;7640;53.116;6.878;2024-02-15T09:31:39;13.10;99.90
15083;DHT22;7640;53.116;6.878;2024-02-15T09:34:08;13.10;99.90
15083;DHT22;7640;53.116;6.878;2024-02-15T09:36:37;13.20;99.90
15083;DHT22;7640;53.116;6.878;2024-02-15T09:39:06;13.20;99.90
15083;DHT22;7640;53.116;6.878;2024-02-15T09:41:34;13.10;99.90
15083;DHT22;7640;53.116;6.878;2024-02-15T09:44:04;13.20;99.90
15083;DHT22;7640;53.116;6.878;2024-02-15T09:46:35;13.20;99.90
15083;DHT22;7640;53.116;6.878;2024-02-15T09:49:05;13.20;99.90
15083;DHT22;7640;53.116;6.878;2024-02-15T09:51:35;13.20;99.90
15083;DHT22;7640;53.116;6.878;2024-02-15T09:54:04;13.20;99.90
15083;DHT22;7640;53.116;6.878;2024-02-15T09:56:37;13.20;99.90
15083;DHT22;7640;53.116;6.878;2024-02-15T09:59:07;13.20;99.90
15083;DHT22;7640;53.116;6.878;2024-02-15T10:01:37;13.30;99.90
15083;DHT22;7640;53.116;6.878;2024-02-15T10:04:07;13.30;99.90
15083;DHT22;7640;53.116;6.878;2024-02-15T10:06:36;13.30;99.90
15083;DHT22;7640;53.116;6.878;2024-02-15T10:09:24;13.40;99.90
15083;DHT22;7640;53.116;6.878;2024-02-15T10:11:55;13.40;99.90
15083;DHT22;7640;53.116;6.878;2024-02-15T10:14:29;13.50;99.90
15083;DHT22;7640;53.116;6.878;2024-02-15T10:17:06;13.50;99.90
15083;DHT22;7640;53.116;6.878;2024-02-15T10:19:38;13.60;99.90
15083;DHT22;7640;53.116;6.878;2024-02-15T10:22:10;13.60;99.90
15083;DHT22;7640;53.116;6.878;2024-02-15T10:24:42;13.60;99.90
15083;DHT22;7640;53.116;6.878;2024-02-15T10:27:11;13.70;99.90
15083;DHT22;7640;53.116;6.878;2024-02-15T10:29:41;13.70;99.90
15083;DHT22;7640;53.116;6.878;2024-02-15T10:32:09;13.70;99.90
15083;DHT22;7640;53.116;6.878;2024-02-15T10:34:43;13.80;99.90
15083;DHT22;7640;53.116;6.878;2024-02-15T10:37:14;13.80;99.90
15083;DHT22;7640;53.116;6.878;2024-02-15T10:39:44;13.80;99.90
15083;DHT22;7640;53.116;6.878;2024-02-15T10:42:14;13.80;99.90
15083;DHT22;7640;53.116;6.878;2024-02-15T10:44:47;13.90;99.90
15083;DHT22;7640;53.116;6.878;2024-02-15T10:47:17;13.90;99.90
15083;DHT22;7640;53.116;6.878;2024-02-15T10:49:46;13.90;99.90
15083;DHT22;7640;53.116;6.878;2024-02-15T10:52:16;13.90;99.90
15083;DHT22;7640;53.116;6.878;2024-02-15T10:54:51;14.00;99.90
15083;DHT22;7640;53.116;6.878;2024-02-15T10:57:21;14.00;99.90
15083;DHT22;7640;53.116;6.878;2024-02-15T10:59:55;14.10;99.90
15083;DHT22;7640;53.116;6.878;2024-02-15T11:02:29;14.10;99.90
15083;DHT22;7640;53.116;6.878;2024-02-15T11:05:01;14.10;99.90
15083;DHT22;7640;53.116;6.878;2024-02-15T11:07:33;14.20;99.90
15083;DHT22;7640;53.116;6.878;2024-02-15T11:10:04;14.20;99.90
15083;DHT22;7640;53.116;6.878;2024-02-15T11:12:35;14.20;99.90
15083;DHT22;7640;53.116;6.878;2024-02-15T11:15:08;14.10;99.90
15083;DHT22;7640;53.116;6.878;2024-02-15T11:17:46;14.10;99.90
15083;DHT22;7640;53.116;6.878;2024-02-15T11:20:47;14.10;99.90
15083;DHT22;7640;53.116;6.878;2024-02-15T11:23:27;14.00;99.90
15083;DHT22;7640;53.116;6.878;2024-02-15T11:25:58;14.00;99.90
15083;DHT22;7640;53.116;6.878;2024-02-15T11:28:38;14.00;99.90
15083;DHT22;7640;53.116;6.878;2024-02-15T11:34:44;14.00;99.90
15083;DHT22;7640;53.116;6.878;2024-02-15T11:37:54;14.00;99.90
15083;DHT22;7640;53.116;6.878;2024-02-15T11:40:27;14.00;99.90
15083;DHT22;7640;53.116;6.878;2024-02-15T11:42:58;14.00;99.90
15083;DHT22;7640;53.116;6.878;2024-02-15T11:45:29;14.00;99.90
15083;DHT22;7640;53.116;6.878;2024-02-15T11:48:03;14.10;99.90
15083;DHT22;7640;53.116;6.878;2024-02-15T11:50:34;14.10;99.90
15083;DHT22;7640;53.116;6.878;2024-02-15T11:53:04;14.10;99.90
15083;DHT22;7640;53.116;6.878;2024-02-15T11:55:38;14.10;99.90
15083;DHT22;7640;53.116;6.878;2024-02-15T11:58:09;14.10;99.90
15083;DHT22;7640;53.116;6.878;2024-02-15T12:00:49;14.10;99.90
15083;DHT22;7640;53.116;6.878;2024-02-15T12:03:36;14.10;99.90
15083;DHT22;7640;53.116;6.878;2024-02-15T12:06:33;14.10;99.90
15083;DHT22;7640;53.116;6.878;2024-02-15T12:09:19;14.10;99.90
15083;DHT22;7640;53.116;6.878;2024-02-15T12:12:06;14.10;99.90
15083;DHT22;7640;53.116;6.878;2024-02-15T12:14:58;14.10;99.90
15083;DHT22;7640;53.116;6.878;2024-02-15T12:17:45;14.20;99.90
15083;DHT22;7640;53.116;6.878;2024-02-15T12:20:33;14.20;99.90
15083;DHT22;7640;53.116;6.878;2024-02-15T12:23:03;14.20;99.90
15083;DHT22;7640;53.116;6.878;2024-02-15T12:25:35;14.20;99.90
15083;DHT22;7640;53.116;6.878;2024-02-15T12:28:06;14.20;99.90
15083;DHT22;7640;53.116;6.878;2024-02-15T12:30:35;14.20;99.90
15083;DHT22;7640;53.116;6.878;2024-02-15T12:33:12;14.20;99.90
15083;DHT22;7640;53.116;6.878;2024-02-15T12:35:49;14.20;99.90
15083;DHT22;7640;53.116;6.878;2024-02-15T12:38:18;14.20;99.90
15083;DHT22;7640;53.116;6.878;2024-02-15T12:40:48;14.10;99.90
15083;DHT22;7640;53.116;6.878;2024-02-15T12:43:17;14.10;99.90
15083;DHT22;7640;53.116;6.878;2024-02-15T12:45:45;14.10;99.90
15083;DHT22;7640;53.116;6.878;2024-02-15T12:48:14;14.10;99.90
15083;DHT22;7640;53.116;6.878;2024-02-15T12:50:46;14.10;99.90
15083;DHT22;7640;53.116;6.878;2024-02-15T12:53:22;14.10;99.90
15083;DHT22;7640;53.116;6.878;2024-02-15T12:55:54;14.10;99.90
15083;DHT22;7640;53.116;6.878;2024-02-15T12:58:23;14.10;99.90
15083;DHT22;7640;53.116;6.878;2024-02-15T13:00:55;14.10;99.90
15083;DHT22;7640;53.116;6.878;2024-02-15T13:03:25;14.10;99.90
15083;DHT22;7640;53.116;6.878;2024-02-15T13:05:54;14.10;99.90
15083;DHT22;7640;53.116;6.878;2024-02-15T13:08:25;14.10;99.90
15083;DHT22;7640;53.116;6.878;2024-02-15T13:10:54;14.10;99.90
15083;DHT22;7640;53.116;6.878;2024-02-15T13:13:23;14.10;99.90
15083;DHT22;7640;53.116;6.878;2024-02-15T13:15:55;14.00;99.90
15083;DHT22;7640;53.116;6.878;2024-02-15T13:18:25;14.00;99.90
15083;DHT22;7640;53.116;6.878;2024-02-15T13:20:55;14.00;99.90
15083;DHT22;7640;53.116;6.878;2024-02-15T13:23:27;14.10;99.90
15083;DHT22;7640;53.116;6.878;2024-02-15T13:25:58;14.10;99.90
15083;DHT22;7640;53.116;6.878;2024-02-15T13:28:31;14.10;99.90
15083;DHT22;7640;53.116;6.878;2024-02-15T13:30:59;14.00;99.90
15083;DHT22;7640;53.116;6.878;2024-02-15T13:33:28;14.00;99.90
15083;DHT22;7640;53.116;6.878;2024-02-15T13:35:59;14.00;99.90
15083;DHT22;7640;53.116;6.878;2024-02-15T13:38:30;14.00;99.90
15083;DHT22;7640;53.116;6.878;2024-02-15T13:40:58;14.00;99.90
15083;DHT22;7640;53.116;6.878;2024-02-15T13:43:30;14.00;99.90
15083;DHT22;7640;53.116;6.878;2024-02-15T13:45:59;14.00;99.90
15083;DHT22;7640;53.116;6.878;2024-02-15T13:48:29;14.00;99.90
15083;DHT22;7640;53.116;6.878;2024-02-15T13:50:58;14.00;99.90
15083;DHT22;7640;53.116;6.878;2024-02-15T13:53:29;14.00;99.90
15083;DHT22;7640;53.116;6.878;2024-02-15T13:55:57;14.00;99.90
15083;DHT22;7640;53.116;6.878;2024-02-15T13:58:27;14.00;99.90
15083;DHT22;7640;53.116;6.878;2024-02-15T14:00:55;14.00;99.90
15083;DHT22;7640;53.116;6.878;2024-02-15T14:03:24;13.90;99.90
15083;DHT22;7640;53.116;6.878;2024-02-15T14:05:53;14.00;99.90
15083;DHT22;7640;53.116;6.878;2024-02-15T14:08:21;13.90;99.90
15083;DHT22;7640;53.116;6.878;2024-02-15T14:10:53;13.90;99.90
15083;DHT22;7640;53.116;6.878;2024-02-15T14:13:23;14.00;99.90
15083;DHT22;7640;53.116;6.878;2024-02-15T14:15:52;14.00;99.90
15083;DHT22;7640;53.116;6.878;2024-02-15T14:18:21;14.00;99.90
15083;DHT22;7640;53.116;6.878;2024-02-15T14:20:51;14.00;99.90
15083;DHT22;7640;53.116;6.878;2024-02-15T14:23:20;14.00;99.90
15083;DHT22;7640;53.116;6.878;2024-02-15T14:25:49;14.00;99.90
15083;DHT22;7640;53.116;6.878;2024-02-15T14:28:19;14.00;99.90
15083;DHT22;7640;53.116;6.878;2024-02-15T14:30:47;14.00;99.90
15083;DHT22;7640;53.116;6.878;2024-02-15T14:33:34;14.00;99.90
15083;DHT22;7640;53.116;6.878;2024-02-15T14:36:05;14.00;99.90
15083;DHT22;7640;53.116;6.878;2024-02-15T14:38:33;14.00;99.90
15083;DHT22;7640;53.116;6.878;2024-02-15T14:41:02;14.00;99.90
15083;DHT22;7640;53.116;6.878;2024-02-15T14:43:36;14.10;99.90
15083;DHT22;7640;53.116;6.878;2024-02-15T14:46:05;14.10;99.90
15083;DHT22;7640;53.116;6.878;2024-02-15T14:48:35;14.00;99.90
15083;DHT22;7640;53.116;6.878;2024-02-15T14:51:08;14.00;99.90
15083;DHT22;7640;53.116;6.878;2024-02-15T14:53:37;14.00;99.90
15083;DHT22;7640;53.116;6.878;2024-02-15T14:56:06;14.00;99.90
15083;DHT22;7640;53.116;6.878;2024-02-15T14:58:36;14.00;99.90
15083;DHT22;7640;53.116;6.878;2024-02-15T15:01:05;14.10;99.90
15083;DHT22;7640;53.116;6.878;2024-02-15T15:03:36;14.00;99.90
15083;DHT22;7640;53.116;6.878;2024-02-15T15:06:07;14.00;99.90
15083;DHT22;7640;53.116;6.878;2024-02-15T15:09:07;14.00;99.90
15083;DHT22;7640;53.116;6.878;2024-02-15T15:11:53;14.00;99.90
15083;DHT22;7640;53.116;6.878;2024-02-15T15:14:41;14.00;99.90
15083;DHT22;7640;53.116;6.878;2024-02-15T15:17:12;14.00;99.90
15083;DHT22;7640;53.116;6.878;2024-02-15T15:19:43;14.00;99.90
15083;DHT22;7640;53.116;6.878;2024-02-15T15:22:13;14.00;99.90
15083;DHT22;7640;53.116;6.878;2024-02-15T15:24:42;14.00;99.90
15083;DHT22;7640;53.116;6.878;2024-02-15T15:27:11;14.10;99.90
15083;DHT22;7640;53.116;6.878;2024-02-15T15:29:41;14.10;99.90
15083;DHT22;7640;53.116;6.878;2024-02-15T15:32:10;14.10;99.90
15083;DHT22;7640;53.116;6.878;2024-02-15T15:34:38;14.10;99.90
15083;DHT22;7640;53.116;6.878;2024-02-15T15:37:07;14.10;99.90
15083;DHT22;7640;53.116;6.878;2024-02-15T15:39:39;14.00;99.90
15083;DHT22;7640;53.116;6.878;2024-02-15T15:42:07;14.10;99.90
15083;DHT22;7640;53.116;6.878;2024-02-15T15:44:36;14.10;99.90
15083;DHT22;7640;53.116;6.878;2024-02-15T15:47:06;14.10;99.90
15083;DHT22;7640;53.116;6.878;2024-02-15T15:49:35;14.10;99.90
15083;DHT22;7640;53.116;6.878;2024-02-15T15:52:04;14.10;99.90
15083;DHT22;7640;53.116;6.878;2024-02-15T15:54:34;14.10;99.90
15083;DHT22;7640;53.116;6.878;2024-02-15T15:57:03;14.10;99.90
15083;DHT22;7640;53.116;6.878;2024-02-15T15:59:32;14.00;99.90
15083;DHT22;7640;53.116;6.878;2024-02-15T16:02:02;14.10;99.90
15083;DHT22;7640;53.116;6.878;2024-02-15T16:04:33;14.00;99.90
15083;DHT22;7640;53.116;6.878;2024-02-15T16:07:04;14.00;99.90
15083;DHT22;7640;53.116;6.878;2024-02-15T16:09:34;14.00;99.90
15083;DHT22;7640;53.116;6.878;2024-02-15T16:12:02;14.00;99.90